createdAt,value
2018-06-28T00:02:20.903Z,1.83
2018-06-28T00:07:25.031Z,1.30
2018-06-28T00:12:29.164Z,1.73
2018-06-28T00:17:33.278Z,1.50
2018-06-28T00:22:37.518Z,2.10
2018-06-28T00:27:41.759Z,1.50
2018-06-28T00:32:45.881Z,2.20
2018-06-28T00:37:50.007Z,1.43
2018-06-28T00:42:54.240Z,1.57
2018-06-28T00:47:58.379Z,1.73
2018-06-28T00:53:02.507Z,1.40
2018-06-28T00:58:06.639Z,1.97
2018-06-28T01:03:10.760Z,1.40
2018-06-28T01:08:14.873Z,1.43
2018-06-28T01:13:19.003Z,1.90
2018-06-28T01:18:23.135Z,2.47
2018-06-28T01:23:27.243Z,1.30
2018-06-28T01:28:31.600Z,1.50
2018-06-28T01:33:35.755Z,2.20
2018-06-28T01:38:39.967Z,4.00
2018-06-28T01:43:47.997Z,1.37
2018-06-28T01:48:52.324Z,1.60
2018-06-28T01:53:56.481Z,1.80
2018-06-28T01:59:00.611Z,1.60
2018-06-28T02:04:04.723Z,2.37
2018-06-28T02:09:09.961Z,1.47
2018-06-28T02:14:14.085Z,2.93
2018-06-28T02:19:18.387Z,1.60
2018-06-28T02:24:22.659Z,2.30
2018-06-28T02:29:26.987Z,1.60
2018-06-28T02:34:31.101Z,2.50
2018-06-28T02:39:35.219Z,1.70
2018-06-28T02:44:39.576Z,1.80
2018-06-28T02:49:43.680Z,1.70
2018-06-28T02:54:47.835Z,1.53
2018-06-28T02:59:52.265Z,1.33
2018-06-28T03:04:56.600Z,3.00
2018-06-28T03:10:00.699Z,1.40
2018-06-28T03:15:04.843Z,1.63
2018-06-28T03:20:09.106Z,2.10
2018-06-28T03:25:13.236Z,1.90
2018-06-28T03:30:17.487Z,1.57
2018-06-28T03:35:21.729Z,1.60
2018-06-28T03:40:25.861Z,1.73
2018-06-28T03:45:29.988Z,1.60
2018-06-28T03:50:34.283Z,1.73
2018-06-28T03:55:38.404Z,1.97
2018-06-28T04:00:42.835Z,1.87
2018-06-28T04:05:46.947Z,1.77
2018-06-28T04:10:51.057Z,2.10
2018-06-28T04:15:55.332Z,2.17
2018-06-28T04:20:59.447Z,1.47
2018-06-28T04:26:03.681Z,2.10
2018-06-28T04:31:07.811Z,1.60
2018-06-28T04:36:12.048Z,2.00
2018-06-28T04:41:16.169Z,1.87
2018-06-28T04:46:20.304Z,1.40
2018-06-28T04:51:24.529Z,3.17
2018-06-28T04:56:28.648Z,1.90
2018-06-28T05:01:32.768Z,1.60
2018-06-28T05:06:36.915Z,1.50
2018-06-28T05:11:41.159Z,1.30
2018-06-28T05:16:45.495Z,1.53
2018-06-28T05:21:49.600Z,1.83
2018-06-28T05:26:53.747Z,1.60
2018-06-28T05:31:57.969Z,1.93
2018-06-28T05:37:02.208Z,3.40
2018-06-28T05:42:06.747Z,4.60
2018-06-28T05:47:11.219Z,12.50
2018-06-28T05:52:15.327Z,5.50
2018-06-28T05:57:19.543Z,4.43
2018-06-28T06:02:23.671Z,5.53
2018-06-28T06:07:27.788Z,4.80
2018-06-28T06:12:32.022Z,5.20
2018-06-28T06:17:36.561Z,3.50
2018-06-28T06:22:40.925Z,3.60
2018-06-28T06:27:45.060Z,5.33
2018-06-28T06:32:49.268Z,4.00
2018-06-28T06:37:53.605Z,5.80
2018-06-28T06:42:58.019Z,4.27
2018-06-28T06:48:02.146Z,5.90
2018-06-28T06:53:06.508Z,4.27
2018-06-28T06:58:10.688Z,5.20
2018-06-28T07:03:14.947Z,5.17
2018-06-28T07:08:19.190Z,4.00
2018-06-28T07:13:23.371Z,8.77
2018-06-28T07:18:27.651Z,5.93
2018-06-28T07:23:31.980Z,7.83
2018-06-28T07:28:36.455Z,9.30
2018-06-28T07:33:40.791Z,7.43
2018-06-28T07:38:44.907Z,5.70
2018-06-28T07:43:49.031Z,5.43
2018-06-28T07:48:53.335Z,5.90
2018-06-28T07:53:57.488Z,10.87
2018-06-28T07:59:01.796Z,4.97
2018-06-28T08:04:06.337Z,7.67
2018-06-28T08:09:10.464Z,6.93
2018-06-28T08:14:14.798Z,6.97
2018-06-28T08:19:18.935Z,4.37
2018-06-28T08:24:23.176Z,9.13
2018-06-28T08:29:27.311Z,4.93
2018-06-28T08:34:31.721Z,5.67
2018-06-28T08:39:35.895Z,3.90
2018-06-28T08:44:40.099Z,4.83
2018-06-28T08:49:44.216Z,4.27
2018-06-28T08:54:48.646Z,4.40
2018-06-28T08:59:52.883Z,4.90
2018-06-28T09:04:57.006Z,6.10
2018-06-28T09:10:01.352Z,4.17
2018-06-28T09:15:05.526Z,6.20
2018-06-28T09:20:09.855Z,4.43
2018-06-28T09:25:14.138Z,3.43
2018-06-28T09:30:18.267Z,4.40
2018-06-28T09:35:22.415Z,2.93
2018-06-28T09:40:26.534Z,5.37
2018-06-28T09:45:30.721Z,4.10
2018-06-28T09:50:34.956Z,5.00
2018-06-28T09:55:39.323Z,3.77
2018-06-28T10:00:44.643Z,7.57
2018-06-28T10:05:48.798Z,6.20
2018-06-28T10:10:52.991Z,9.50
2018-06-28T10:15:57.275Z,4.20
2018-06-28T10:21:01.604Z,5.10
2018-06-28T10:26:06.634Z,6.83
2018-06-28T10:31:10.768Z,3.53
2018-06-28T10:36:14.966Z,5.20
2018-06-28T10:41:19.351Z,3.33
2018-06-28T10:46:23.684Z,5.23
2018-06-28T10:51:27.840Z,5.00
2018-06-28T10:56:32.323Z,9.13
2018-06-28T11:01:36.620Z,6.00
2018-06-28T11:06:40.735Z,5.33
2018-06-28T11:11:44.864Z,4.47
2018-06-28T11:16:48.979Z,3.70
2018-06-28T11:21:53.152Z,6.77
2018-06-28T11:26:57.293Z,3.00
2018-06-28T11:32:01.755Z,10.47
2018-06-28T11:37:06.164Z,5.77
2018-06-28T11:42:11.265Z,4.53
2018-06-28T11:47:15.380Z,3.33
2018-06-28T11:52:19.534Z,7.73
2018-06-28T11:57:23.832Z,8.30
2018-06-28T12:02:28.161Z,6.83
2018-06-28T12:07:32.324Z,4.97
2018-06-28T12:12:36.455Z,5.40
2018-06-28T12:17:40.658Z,4.50
2018-06-28T12:22:44.787Z,7.00
2018-06-28T12:27:48.899Z,7.83
2018-06-28T12:32:53.709Z,9.00
2018-06-28T12:37:57.859Z,13.07
2018-06-28T12:43:01.971Z,2.47
2018-06-28T12:48:08.804Z,7.30
2018-06-28T12:53:13.547Z,6.30
2018-06-28T12:58:17.740Z,3.37
2018-06-28T13:03:22.011Z,10.10
2018-06-28T13:08:26.344Z,4.80
2018-06-28T13:13:30.534Z,6.60
2018-06-28T13:18:34.637Z,4.90
2018-06-28T13:23:38.811Z,5.30
2018-06-28T13:28:43.591Z,5.00
2018-06-28T13:33:47.763Z,4.00
2018-06-28T13:38:52.043Z,5.63
2018-06-28T13:43:56.388Z,4.10
2018-06-28T13:49:00.741Z,3.40
2018-06-28T13:54:05.138Z,6.13
2018-06-28T13:59:09.379Z,8.00
2018-06-28T14:04:13.523Z,4.93
2018-06-28T14:09:17.767Z,4.60
2018-06-28T14:14:21.860Z,6.30
2018-06-28T14:19:25.976Z,3.57
2018-06-28T14:24:30.311Z,7.83
2018-06-28T14:29:34.559Z,5.33
2018-06-28T14:34:38.991Z,5.40
2018-06-28T14:39:43.115Z,5.43
2018-06-28T14:44:47.237Z,4.03
2018-06-28T14:49:51.557Z,3.00
2018-06-28T14:54:55.912Z,2.50
2018-06-28T15:00:00.153Z,6.33
2018-06-28T15:05:05.763Z,2.90
2018-06-28T15:10:09.895Z,1.90
2018-06-28T15:15:14.175Z,2.37
2018-06-28T15:20:18.604Z,1.83
2018-06-28T15:25:22.726Z,2.13
2018-06-28T15:30:26.850Z,2.10
2018-06-28T15:35:31.196Z,2.40
2018-06-28T15:40:35.316Z,1.57
2018-06-28T15:45:39.625Z,3.93
2018-06-28T15:50:43.837Z,1.70
2018-06-28T15:55:48.087Z,1.70
2018-06-28T16:00:52.252Z,2.30
2018-06-28T16:05:56.492Z,1.50
2018-06-28T16:11:00.640Z,2.10
2018-06-28T16:16:04.911Z,1.57
2018-06-28T16:21:09.231Z,1.73
2018-06-28T16:26:13.343Z,3.57
2018-06-28T16:31:17.472Z,1.47
2018-06-28T16:36:21.763Z,1.23
2018-06-28T16:41:25.884Z,1.97
2018-06-28T16:46:30.046Z,3.73
2018-06-28T16:51:34.463Z,1.67
2018-06-28T16:56:38.687Z,1.70
2018-06-28T17:01:42.811Z,2.30
2018-06-28T17:06:47.211Z,3.53
2018-06-28T17:11:51.420Z,7.20
2018-06-28T17:16:55.665Z,8.77
2018-06-28T17:21:59.886Z,16.37
2018-06-28T17:27:04.065Z,4.77
2018-06-28T17:32:08.490Z,5.43
2018-06-28T17:37:12.664Z,4.80
2018-06-28T17:42:16.791Z,3.30
2018-06-28T17:47:20.920Z,3.93
2018-06-28T17:52:25.048Z,4.17
2018-06-28T17:57:29.162Z,4.30
2018-06-28T18:02:33.267Z,5.63
2018-06-28T18:07:37.391Z,6.37
2018-06-28T18:12:41.693Z,3.00
2018-06-28T18:17:45.879Z,3.40
2018-06-28T18:22:49.999Z,5.50
2018-06-28T18:27:54.111Z,3.13
2018-06-28T18:32:58.361Z,1.73
2018-06-28T18:38:02.642Z,2.23
2018-06-28T18:43:06.467Z,2.60
2018-06-28T18:48:10.537Z,2.13
2018-06-28T18:53:14.667Z,1.73
2018-06-28T18:58:18.835Z,2.27
2018-06-28T19:03:23.132Z,1.60
2018-06-28T19:08:27.381Z,2.13
2018-06-28T19:13:31.535Z,2.60
2018-06-28T19:18:35.655Z,2.00
2018-06-28T19:23:45.186Z,1.70
2018-06-28T19:28:49.653Z,2.30
2018-06-28T19:33:53.851Z,2.33
2018-06-28T19:39:03.615Z,1.90
2018-06-28T19:44:07.942Z,1.87
2018-06-28T19:49:17.340Z,1.90
2018-06-28T19:54:21.464Z,1.40
2018-06-28T19:59:25.752Z,2.33
2018-06-28T20:04:35.315Z,1.80
2018-06-28T20:09:39.594Z,2.33
2018-06-28T20:14:49.200Z,2.20
2018-06-28T20:19:58.763Z,2.53
2018-06-28T20:25:02.926Z,1.80
2018-06-28T20:30:12.445Z,1.70
2018-06-28T20:35:16.596Z,1.73
2018-06-28T20:40:20.736Z,1.97
2018-06-28T20:45:24.858Z,2.10
2018-06-28T20:50:29.064Z,1.60
2018-06-28T20:55:33.239Z,2.03
2018-06-28T21:00:37.883Z,1.70
2018-06-28T21:05:42.000Z,1.57
2018-06-28T21:10:46.164Z,2.00
2018-06-28T21:15:50.415Z,1.80
2018-06-28T21:20:54.551Z,1.80
2018-06-28T21:25:58.664Z,2.03
2018-06-28T21:31:02.953Z,1.80
2018-06-28T21:36:07.132Z,2.90
2018-06-28T21:41:11.467Z,1.70
2018-06-28T21:46:15.711Z,2.20
2018-06-28T21:51:20.043Z,1.87
2018-06-28T21:56:24.176Z,2.37
2018-06-28T22:01:28.450Z,2.07
2018-06-28T22:06:32.554Z,1.90
2018-06-28T22:11:36.761Z,1.77
2018-06-28T22:16:40.906Z,1.70
2018-06-28T22:21:45.039Z,1.83
2018-06-28T22:26:49.242Z,2.53
2018-06-28T22:31:53.372Z,1.93
2018-06-28T22:36:57.608Z,1.73
2018-06-28T22:42:01.711Z,1.70
2018-06-28T22:47:06.076Z,1.83
2018-06-28T22:52:10.210Z,2.90
2018-06-28T22:57:14.422Z,1.90
2018-06-28T23:02:18.551Z,2.43
2018-06-28T23:07:22.831Z,1.80
2018-06-28T23:12:27.219Z,1.90
2018-06-28T23:17:31.458Z,3.37
2018-06-28T23:22:42.695Z,1.70
2018-06-28T23:27:47.734Z,2.10
2018-06-28T23:32:51.883Z,3.00
2018-06-28T23:37:56.008Z,4.87
2018-06-28T23:43:00.139Z,2.43
2018-06-28T23:48:04.424Z,1.47
2018-06-28T23:53:08.778Z,1.93
2018-06-28T23:58:12.998Z,2.13
